Time;durP1;ratioP1;P1;durP2;ratioP2;P2;SDS_P1;SDS_P2;PMS_P1;PMS_P2;Temp;Humidity;BMP_temperature;BMP_pressure;BME280_temperature;BME280_humidity;BME280_pressure;Samples;Min_cycle;Max_cycle;Signal;HPM_P1;HPM_P2
2022/10/03 00:01:36;;;;;;;;;;;16.60;99.90;;;;;;4197617;28;19932;-58
2022/10/03 00:04:29;;;;;;;;;;;16.70;99.90;;;;;;4197904;28;19974;-58
2022/10/03 00:06:49;;;;;;;;;;;16.50;99.90;;;;;;4188648;28;19958;-58
2022/10/03 00:09:17;;;;;;;;;;;16.40;99.90;;;;;;4181611;28;19935;-58
2022/10/03 00:11:47;;;;;;;;;;;16.40;99.90;;;;;;4181517;28;19947;-57
2022/10/03 00:14:14;;;;;;;;;;;16.40;99.90;;;;;;4181424;28;19935;-58
2022/10/03 00:16:35;;;;;;;;;;;16.40;99.90;;;;;;4181466;28;19940;-58
2022/10/03 00:19:12;;;;;;;;;;;16.40;99.90;;;;;;4181501;28;19931;-59
2022/10/03 00:21:37;;;;;;;;;;;16.30;99.90;;;;;;4184218;28;19982;-58
2022/10/03 00:24:01;;;;;;;;;;;16.30;99.90;;;;;;4197642;28;19998;-59
2022/10/03 00:26:48;;;;;;;;;;;16.30;99.90;;;;;;4197559;28;19978;-58
2022/10/03 00:29:31;;;;;;;;;;;16.30;99.90;;;;;;4196765;28;20434;-58
2022/10/03 00:32:07;;;;;;;;;;;16.30;99.90;;;;;;4197531;28;19967;-57
2022/10/03 00:34:30;;;;;;;;;;;16.00;99.90;;;;;;4197835;28;20014;-58
2022/10/03 00:37:10;;;;;;;;;;;15.90;99.90;;;;;;4197815;28;19934;-57
2022/10/03 00:39:30;;;;;;;;;;;15.90;99.90;;;;;;4197331;28;19970;-58
2022/10/03 00:42:12;;;;;;;;;;;15.80;99.90;;;;;;4197818;28;19974;-58
2022/10/03 00:44:38;;;;;;;;;;;15.60;99.90;;;;;;4197688;28;19935;-58
2022/10/03 00:47:31;;;;;;;;;;;15.50;99.90;;;;;;4197716;28;19948;-58
2022/10/03 00:49:58;;;;;;;;;;;15.60;99.90;;;;;;4188230;28;20398;-58
2022/10/03 00:52:37;;;;;;;;;;;15.70;99.90;;;;;;4197282;28;19939;-57
2022/10/03 00:55:24;;;;;;;;;;;15.80;99.90;;;;;;4197478;28;19931;-59
2022/10/03 00:57:47;;;;;;;;;;;15.80;99.90;;;;;;4174318;28;19931;-58
2022/10/03 01:00:28;;;;;;;;;;;16.00;99.90;;;;;;4180356;28;19931;-58
2022/10/03 01:02:59;;;;;;;;;;;16.20;99.90;;;;;;4180505;28;19935;-58
2022/10/03 01:05:29;;;;;;;;;;;16.10;99.90;;;;;;4197078;28;20342;-58
2022/10/03 01:07:49;;;;;;;;;;;16.20;99.90;;;;;;4188972;28;19939;-58
2022/10/03 01:10:12;;;;;;;;;;;16.20;99.90;;;;;;4180501;28;19931;-58
2022/10/03 01:12:51;;;;;;;;;;;16.20;99.90;;;;;;4180565;28;19939;-58
2022/10/03 01:15:20;;;;;;;;;;;16.10;99.90;;;;;;4180760;28;20390;-58
2022/10/03 01:17:59;;;;;;;;;;;16.00;99.90;;;;;;4182270;28;20008;-58
2022/10/03 01:20:31;;;;;;;;;;;15.90;99.90;;;;;;4197475;28;19987;-58
2022/10/03 01:23:09;;;;;;;;;;;15.60;99.90;;;;;;4197022;28;20333;-58
2022/10/03 01:25:45;;;;;;;;;;;15.30;99.90;;;;;;4196772;28;20029;-58
2022/10/03 01:31:07;;;;;;;;;;;15.30;99.90;;;;;;4196728;28;20031;-58
2022/10/03 01:33:52;;;;;;;;;;;15.20;99.90;;;;;;4196625;28;20291;-57
2022/10/03 01:36:32;;;;;;;;;;;15.20;99.90;;;;;;4189494;28;19936;-58
2022/10/03 01:38:59;;;;;;;;;;;15.20;99.90;;;;;;4196415;28;19932;-58
2022/10/03 01:41:38;;;;;;;;;;;15.00;99.90;;;;;;4196767;28;20023;-58
2022/10/03 01:44:03;;;;;;;;;;;14.80;99.90;;;;;;4195344;28;19969;-58
2022/10/03 01:46:32;;;;;;;;;;;14.40;99.90;;;;;;4196655;28;19989;-57
2022/10/03 01:48:58;;;;;;;;;;;14.20;99.90;;;;;;4196786;28;20008;-58
2022/10/03 01:51:27;;;;;;;;;;;14.10;99.90;;;;;;4196388;28;19978;-57
2022/10/03 01:54:10;;;;;;;;;;;14.10;99.90;;;;;;4196526;28;19954;-57
2022/10/03 01:56:50;;;;;;;;;;;14.00;99.90;;;;;;4196871;28;20469;-58
2022/10/03 01:59:17;;;;;;;;;;;14.00;99.90;;;;;;4196342;28;20291;-58
2022/10/03 02:01:55;;;;;;;;;;;14.00;99.90;;;;;;4195939;28;19970;-57
2022/10/03 02:04:30;;;;;;;;;;;13.90;99.90;;;;;;4195968;28;19931;-58
2022/10/03 02:06:53;;;;;;;;;;;13.90;99.90;;;;;;4196649;28;20450;-58
2022/10/03 02:09:23;;;;;;;;;;;13.90;99.90;;;;;;4179861;28;19967;-58
2022/10/03 02:11:50;;;;;;;;;;;13.80;99.90;;;;;;4179695;28;19975;-58
2022/10/03 02:14:19;;;;;;;;;;;13.70;99.90;;;;;;4183400;28;19934;-57
2022/10/03 02:16:43;;;;;;;;;;;13.70;99.90;;;;;;4196453;28;19974;-58
2022/10/03 02:19:10;;;;;;;;;;;13.70;99.90;;;;;;4196014;28;19935;-58
2022/10/03 02:21:31;;;;;;;;;;;13.70;99.90;;;;;;4196191;28;19935;-58
2022/10/03 02:24:18;;;;;;;;;;;13.70;99.90;;;;;;4195645;28;19939;-58
2022/10/03 02:26:45;;;;;;;;;;;13.70;99.90;;;;;;4195884;28;19943;-58
2022/10/03 02:29:09;;;;;;;;;;;13.80;99.90;;;;;;4195707;28;19936;-58
2022/10/03 02:31:44;;;;;;;;;;;13.80;99.90;;;;;;4196438;28;19931;-58
2022/10/03 02:34:24;;;;;;;;;;;13.70;99.90;;;;;;4196145;28;20035;-59
2022/10/03 02:37:04;;;;;;;;;;;13.80;99.90;;;;;;4196134;28;19975;-58
2022/10/03 02:39:34;;;;;;;;;;;13.80;99.90;;;;;;4195505;28;19974;-58
2022/10/03 02:42:23;;;;;;;;;;;13.70;99.90;;;;;;4195935;28;19931;-58
2022/10/03 02:45:02;;;;;;;;;;;13.70;99.90;;;;;;4190652;28;20418;-59
2022/10/03 02:47:41;;;;;;;;;;;13.60;99.90;;;;;;4195682;28;19931;-58
2022/10/03 02:50:17;;;;;;;;;;;13.60;99.90;;;;;;4195652;28;20007;-58
2022/10/03 02:52:54;;;;;;;;;;;13.50;99.90;;;;;;4195393;28;20475;-58
2022/10/03 02:55:17;;;;;;;;;;;13.50;99.90;;;;;;4195763;28;20003;-58
2022/10/03 02:57:50;;;;;;;;;;;13.50;99.90;;;;;;4195428;28;19970;-58
2022/10/03 03:00:13;;;;;;;;;;;13.50;99.90;;;;;;4195779;28;19934;-58
2022/10/03 03:02:54;;;;;;;;;;;13.50;99.90;;;;;;4196073;28;19963;-58
2022/10/03 03:05:17;;;;;;;;;;;13.50;99.90;;;;;;4187528;28;19943;-58
2022/10/03 03:07:52;;;;;;;;;;;13.50;99.90;;;;;;4189577;28;20038;-58
2022/10/03 03:10:29;;;;;;;;;;;13.50;99.90;;;;;;4180732;28;19931;-58
2022/10/03 03:13:14;;;;;;;;;;;13.40;99.90;;;;;;4195766;28;20330;-58
2022/10/03 03:15:36;;;;;;;;;;;13.40;99.90;;;;;;4195622;28;20011;-58
2022/10/03 03:18:26;;;;;;;;;;;13.40;99.90;;;;;;4195480;28;20035;-58
2022/10/03 03:21:03;;;;;;;;;;;13.40;99.90;;;;;;4178864;28;19931;-57
2022/10/03 03:23:23;;;;;;;;;;;13.40;99.90;;;;;;4195724;28;19934;-59
2022/10/03 03:25:44;;;;;;;;;;;13.40;99.90;;;;;;4195439;28;19990;-59
2022/10/03 03:28:10;;;;;;;;;;;13.40;99.90;;;;;;4195528;28;20338;-58
2022/10/03 03:30:37;;;;;;;;;;;13.40;99.90;;;;;;4195804;28;19946;-58
2022/10/03 03:33:12;;;;;;;;;;;13.40;99.90;;;;;;4195387;28;20024;-58
2022/10/03 03:35:45;;;;;;;;;;;13.40;99.90;;;;;;4195508;28;19933;-57
2022/10/03 03:38:08;;;;;;;;;;;13.40;99.90;;;;;;4195487;28;19982;-58
2022/10/03 03:40:57;;;;;;;;;;;13.40;99.90;;;;;;4179067;28;19932;-58
2022/10/03 03:43:33;;;;;;;;;;;13.40;99.90;;;;;;4176811;28;19955;-58
2022/10/03 03:46:13;;;;;;;;;;;13.40;99.90;;;;;;4190985;28;20152;-58
2022/10/03 03:48:37;;;;;;;;;;;13.30;99.90;;;;;;4195708;28;19935;-58
2022/10/03 03:51:00;;;;;;;;;;;13.40;99.90;;;;;;4195432;28;19982;-58
2022/10/03 03:53:24;;;;;;;;;;;13.30;99.90;;;;;;4195160;28;19932;-59
2022/10/03 03:55:47;;;;;;;;;;;13.30;99.90;;;;;;4195416;28;20103;-58
2022/10/03 03:58:16;;;;;;;;;;;13.50;99.90;;;;;;4195278;28;19990;-57
2022/10/03 04:00:47;;;;;;;;;;;13.50;99.90;;;;;;4195147;28;19974;-59
2022/10/03 04:03:08;;;;;;;;;;;13.70;99.90;;;;;;4195452;28;20437;-58
2022/10/03 04:05:38;;;;;;;;;;;13.70;99.90;;;;;;4198399;28;19931;-58
2022/10/03 04:08:02;;;;;;;;;;;13.70;99.90;;;;;;4188837;28;20018;-58
2022/10/03 04:10:22;;;;;;;;;;;13.60;99.90;;;;;;4181484;28;19951;-59
2022/10/03 04:12:48;;;;;;;;;;;13.40;99.90;;;;;;4181537;28;20016;-58
2022/10/03 04:15:27;;;;;;;;;;;13.20;99.90;;;;;;4181043;28;19947;-58
2022/10/03 04:20:44;;;;;;;;;;;13.40;99.90;;;;;;4183309;28;19936;-58
2022/10/03 04:23:05;;;;;;;;;;;13.30;99.90;;;;;;4198066;28;20717;-58
2022/10/03 04:25:31;;;;;;;;;;;13.10;99.90;;;;;;4197914;28;19935;-58
2022/10/03 04:28:16;;;;;;;;;;;13.10;99.90;;;;;;4195357;28;19951;-58
2022/10/03 04:30:47;;;;;;;;;;;13.10;99.90;;;;;;4196474;28;19974;-58
2022/10/03 04:33:08;;;;;;;;;;;13.00;99.90;;;;;;4197954;28;19978;-59
2022/10/03 04:35:36;;;;;;;;;;;13.00;99.90;;;;;;4197613;28;19936;-58
2022/10/03 04:38:05;;;;;;;;;;;13.00;99.90;;;;;;4197923;28;20312;-59
2022/10/03 04:40:44;;;;;;;;;;;13.00;99.90;;;;;;4197595;28;19989;-58
2022/10/03 04:43:10;;;;;;;;;;;12.90;99.90;;;;;;4181926;28;19943;-58
2022/10/03 04:45:49;;;;;;;;;;;12.80;99.90;;;;;;4180960;28;19932;-58
2022/10/03 04:48:16;;;;;;;;;;;12.80;99.90;;;;;;4181526;28;19947;-58
2022/10/03 04:50:43;;;;;;;;;;;12.80;99.90;;;;;;4181060;28;20343;-58
2022/10/03 04:53:15;;;;;;;;;;;12.70;99.90;;;;;;4181269;28;19971;-58
2022/10/03 04:55:42;;;;;;;;;;;12.90;99.90;;;;;;4180841;28;19935;-58
2022/10/03 04:58:14;;;;;;;;;;;12.80;99.90;;;;;;4181040;28;20754;-59
2022/10/03 05:00:47;;;;;;;;;;;12.80;99.90;;;;;;4180565;28;20271;-58
2022/10/03 05:03:27;;;;;;;;;;;12.90;99.90;;;;;;4186239;28;19939;-58
2022/10/03 05:05:47;;;;;;;;;;;13.00;99.90;;;;;;4197820;28;19942;-58
2022/10/03 05:08:11;;;;;;;;;;;13.00;99.90;;;;;;4187095;28;20028;-58
2022/10/03 05:10:51;;;;;;;;;;;13.00;99.90;;;;;;4186099;28;20016;-59
2022/10/03 05:13:15;;;;;;;;;;;12.90;99.90;;;;;;4180747;28;20465;-58
2022/10/03 05:15:39;;;;;;;;;;;12.90;99.90;;;;;;4180070;28;19999;-58
2022/10/03 05:18:12;;;;;;;;;;;12.90;99.90;;;;;;4192467;28;20390;-58
2022/10/03 05:20:51;;;;;;;;;;;12.90;99.90;;;;;;4197096;28;19983;-60
2022/10/03 05:23:12;;;;;;;;;;;12.80;99.90;;;;;;4197061;28;19970;-58
2022/10/03 05:25:55;;;;;;;;;;;12.70;99.90;;;;;;4196514;28;20301;-58
2022/10/03 05:28:40;;;;;;;;;;;12.70;99.90;;;;;;4196992;28;19943;-58
2022/10/03 05:31:06;;;;;;;;;;;12.80;99.90;;;;;;4196344;28;19931;-58
2022/10/03 05:33:42;;;;;;;;;;;12.80;99.90;;;;;;4196706;28;20334;-58
2022/10/03 05:36:02;;;;;;;;;;;12.80;99.90;;;;;;4196781;28;19936;-58
2022/10/03 05:38:25;;;;;;;;;;;12.80;99.90;;;;;;4196629;28;20402;-57
2022/10/03 05:40:48;;;;;;;;;;;12.80;99.90;;;;;;4196616;28;19965;-59
2022/10/03 05:43:10;;;;;;;;;;;12.80;99.90;;;;;;4196617;28;19932;-58
2022/10/03 05:45:45;;;;;;;;;;;12.80;99.90;;;;;;4196530;28;19935;-58
2022/10/03 05:48:16;;;;;;;;;;;12.80;99.90;;;;;;4196089;28;19934;-59
2022/10/03 05:50:56;;;;;;;;;;;12.90;99.90;;;;;;4196103;28;20287;-58
2022/10/03 05:53:35;;;;;;;;;;;12.90;99.90;;;;;;4196319;28;20299;-58
2022/10/03 05:55:58;;;;;;;;;;;12.90;99.90;;;;;;4196432;28;20046;-59
2022/10/03 05:58:28;;;;;;;;;;;13.00;99.90;;;;;;4196365;28;19954;-58
2022/10/03 06:01:07;;;;;;;;;;;13.10;99.90;;;;;;4196328;28;19977;-58
2022/10/03 06:03:50;;;;;;;;;;;13.10;99.90;;;;;;4196388;28;19939;-58
2022/10/03 06:06:23;;;;;;;;;;;13.10;99.90;;;;;;4196513;28;20280;-58
2022/10/03 06:08:53;;;;;;;;;;;13.10;99.90;;;;;;4196008;28;20295;-58
2022/10/03 06:11:18;;;;;;;;;;;13.10;99.90;;;;;;4196218;28;19931;-58
2022/10/03 06:14:06;;;;;;;;;;;13.10;99.90;;;;;;4196339;28;19935;-58
2022/10/03 06:16:50;;;;;;;;;;;13.20;99.90;;;;;;4196161;28;19981;-58
2022/10/03 06:19:14;;;;;;;;;;;13.30;99.90;;;;;;4196326;28;20002;-58
2022/10/03 06:21:40;;;;;;;;;;;13.50;99.90;;;;;;4195929;28;20280;-58
2022/10/03 06:24:20;;;;;;;;;;;13.60;99.90;;;;;;4195864;28;20013;-58
2022/10/03 06:26:43;;;;;;;;;;;13.60;99.90;;;;;;4195184;28;19936;-58
2022/10/03 06:29:12;;;;;;;;;;;13.70;99.90;;;;;;4196329;28;20016;-58
2022/10/03 06:31:52;;;;;;;;;;;13.70;99.90;;;;;;4196030;28;20499;-58
2022/10/03 06:34:31;;;;;;;;;;;13.80;99.90;;;;;;4195676;28;19982;-59
2022/10/03 06:37:12;;;;;;;;;;;13.90;99.90;;;;;;4195907;28;19959;-58
2022/10/03 06:39:51;;;;;;;;;;;13.90;99.90;;;;;;4194867;28;20387;-58
2022/10/03 06:42:14;;;;;;;;;;;14.00;99.90;;;;;;4195702;28;19936;-58
2022/10/03 06:44:55;;;;;;;;;;;14.10;99.90;;;;;;4195706;28;20358;-58
2022/10/03 06:47:22;;;;;;;;;;;14.20;99.90;;;;;;4195570;28;19939;-58
2022/10/03 06:50:01;;;;;;;;;;;14.20;99.90;;;;;;4195842;28;19991;-59
2022/10/03 06:52:27;;;;;;;;;;;14.30;99.90;;;;;;4195486;28;19931;-58
2022/10/03 06:54:51;;;;;;;;;;;14.30;99.90;;;;;;4195783;28;20006;-58
2022/10/03 06:57:26;;;;;;;;;;;14.40;99.90;;;;;;4195802;28;20274;-58
2022/10/03 07:00:14;;;;;;;;;;;14.40;99.90;;;;;;4195956;28;19931;-59
2022/10/03 07:02:46;;;;;;;;;;;14.60;99.90;;;;;;4195465;28;19931;-58
2022/10/03 07:05:19;;;;;;;;;;;14.60;99.90;;;;;;4195553;28;20006;-58
2022/10/03 07:08:01;;;;;;;;;;;14.70;99.90;;;;;;4195698;28;20410;-58
2022/10/03 07:10:31;;;;;;;;;;;14.80;99.90;;;;;;4195559;28;20047;-58
2022/10/03 07:13:10;;;;;;;;;;;15.00;99.90;;;;;;4195596;28;19939;-58
2022/10/03 07:15:33;;;;;;;;;;;15.00;99.90;;;;;;4195741;28;20440;-58
2022/10/03 07:18:23;;;;;;;;;;;15.20;99.90;;;;;;4195732;28;19931;-58
2022/10/03 07:21:12;;;;;;;;;;;15.40;99.90;;;;;;4195548;28;19932;-58
2022/10/03 07:23:39;;;;;;;;;;;15.60;99.90;;;;;;4195214;28;19974;-57
2022/10/03 07:26:18;;;;;;;;;;;15.60;99.90;;;;;;4195326;28;19939;-57
2022/10/03 07:28:45;;;;;;;;;;;15.60;99.90;;;;;;4195692;28;20447;-58
2022/10/03 07:31:12;;;;;;;;;;;15.70;99.90;;;;;;4195182;28;20318;-58
2022/10/03 07:33:40;;;;;;;;;;;15.90;99.90;;;;;;4195634;28;19931;-58
2022/10/03 07:39:05;;;;;;;;;;;16.00;99.90;;;;;;4197447;28;19993;-58
2022/10/03 07:41:32;;;;;;;;;;;16.00;99.90;;;;;;4198869;28;19967;-57
2022/10/03 07:44:14;;;;;;;;;;;16.20;99.90;;;;;;4198262;28;19931;-57
2022/10/03 07:46:50;;;;;;;;;;;16.30;99.90;;;;;;4196594;28;19931;-58
2022/10/03 07:49:26;;;;;;;;;;;16.30;99.90;;;;;;4198326;28;20012;-58
2022/10/03 07:51:59;;;;;;;;;;;16.40;99.90;;;;;;4198405;28;19931;-57
2022/10/03 07:54:36;;;;;;;;;;;16.80;99.90;;;;;;4198554;28;20409;-58
2022/10/03 07:57:02;;;;;;;;;;;17.10;99.90;;;;;;4198595;28;19978;-58
2022/10/03 07:59:51;;;;;;;;;;;17.40;99.90;;;;;;4197991;28;19974;-58
2022/10/03 08:02:31;;;;;;;;;;;17.30;99.90;;;;;;4198609;28;19950;-58
2022/10/03 08:05:15;;;;;;;;;;;17.30;99.90;;;;;;4197902;28;19931;-58
2022/10/03 08:07:35;;;;;;;;;;;17.60;99.90;;;;;;4187267;28;19935;-58
2022/10/03 08:10:08;;;;;;;;;;;17.60;99.90;;;;;;4198085;28;20354;-58
2022/10/03 08:12:31;;;;;;;;;;;17.70;99.90;;;;;;4198552;28;19939;-58
2022/10/03 08:15:10;;;;;;;;;;;17.80;99.90;;;;;;4198020;28;19931;-58
2022/10/03 08:17:36;;;;;;;;;;;17.90;99.90;;;;;;4198128;28;20495;-58
2022/10/03 08:20:04;;;;;;;;;;;17.90;99.90;;;;;;4198103;28;19931;-58
2022/10/03 08:22:36;;;;;;;;;;;18.20;99.90;;;;;;4198095;28;19931;-58
2022/10/03 08:25:15;;;;;;;;;;;18.60;99.90;;;;;;4197574;28;19931;-57
2022/10/03 08:27:42;;;;;;;;;;;18.60;99.90;;;;;;4197761;28;20366;-57
2022/10/03 08:30:02;;;;;;;;;;;18.70;99.90;;;;;;4197849;28;20083;-58
2022/10/03 08:32:42;;;;;;;;;;;18.70;99.90;;;;;;4197615;28;20433;-58
2022/10/03 08:35:07;;;;;;;;;;;18.80;99.90;;;;;;4197706;28;19932;-58
2022/10/03 08:37:47;;;;;;;;;;;18.80;99.90;;;;;;4197834;28;19932;-58
2022/10/03 08:40:08;;;;;;;;;;;19.00;99.90;;;;;;4197933;28;19983;-58
2022/10/03 08:42:37;;;;;;;;;;;19.20;99.90;;;;;;4197570;28;19970;-59
2022/10/03 08:45:04;;;;;;;;;;;19.40;99.90;;;;;;4197723;28;19934;-58
2022/10/03 08:47:36;;;;;;;;;;;19.60;99.90;;;;;;4197357;28;19931;-58
2022/10/03 08:50:05;;;;;;;;;;;19.60;99.90;;;;;;4196663;28;19932;-58
2022/10/03 08:52:46;;;;;;;;;;;19.70;99.90;;;;;;4197538;28;19974;-58
2022/10/03 08:55:30;;;;;;;;;;;19.80;99.90;;;;;;4197230;28;20438;-58
2022/10/03 08:58:02;;;;;;;;;;;19.80;99.90;;;;;;4197054;28;20014;-58
2022/10/03 09:00:28;;;;;;;;;;;20.00;99.90;;;;;;4196848;28;20442;-59
2022/10/03 09:02:48;;;;;;;;;;;20.00;99.90;;;;;;4197481;28;19936;-58
2022/10/03 09:05:24;;;;;;;;;;;20.20;99.90;;;;;;4197550;28;19931;-59
2022/10/03 09:07:50;;;;;;;;;;;20.40;99.90;;;;;;4189709;28;19971;-58
2022/10/03 09:10:11;;;;;;;;;;;20.80;99.90;;;;;;4180887;28;19931;-58
2022/10/03 09:12:44;;;;;;;;;;;20.70;99.90;;;;;;4180715;28;19971;-58
2022/10/03 09:15:13;;;;;;;;;;;20.60;99.90;;;;;;4180413;28;19935;-59
2022/10/03 09:17:45;;;;;;;;;;;20.80;99.90;;;;;;4180920;28;20003;-58
2022/10/03 09:20:26;;;;;;;;;;;20.80;99.90;;;;;;4180211;28;19944;-58
2022/10/03 09:22:48;;;;;;;;;;;21.20;99.90;;;;;;4191402;28;20368;-59
2022/10/03 09:25:09;;;;;;;;;;;21.40;99.90;;;;;;4196858;28;19935;-59
2022/10/03 09:27:30;;;;;;;;;;;21.50;99.90;;;;;;4196705;28;19935;-59
2022/10/03 09:29:54;;;;;;;;;;;21.80;99.90;;;;;;4196930;28;19932;-58
2022/10/03 09:32:27;;;;;;;;;;;22.10;99.90;;;;;;4193077;28;20403;-59
2022/10/03 09:34:48;;;;;;;;;;;22.20;99.90;;;;;;4193983;28;20436;-59
2022/10/03 09:37:08;;;;;;;;;;;22.10;99.90;;;;;;4208353;28;19974;-58
2022/10/03 09:39:47;;;;;;;;;;;22.00;99.90;;;;;;4198967;28;19934;-59
2022/10/03 09:42:20;;;;;;;;;;;22.10;99.90;;;;;;4190654;28;19932;-59
2022/10/03 09:44:44;;;;;;;;;;;22.70;99.90;;;;;;4198409;28;19935;-59
2022/10/03 09:47:22;;;;;;;;;;;22.70;99.90;;;;;;4194967;28;19931;-59
2022/10/03 09:49:46;;;;;;;;;;;22.50;99.90;;;;;;4201001;28;19936;-59
2022/10/03 09:52:07;;;;;;;;;;;22.40;99.90;;;;;;4195546;28;19954;-59
2022/10/03 09:54:28;;;;;;;;;;;22.70;99.90;;;;;;4196317;28;19940;-60
2022/10/03 09:56:52;;;;;;;;;;;23.00;99.90;;;;;;4196411;28;19936;-59
2022/10/03 09:59:13;;;;;;;;;;;22.90;99.90;;;;;;4195668;28;20452;-59
2022/10/03 10:01:36;;;;;;;;;;;22.80;99.90;;;;;;4196676;28;19951;-58
2022/10/03 10:03:59;;;;;;;;;;;22.60;99.90;;;;;;4195806;28;19931;-59
2022/10/03 10:06:23;;;;;;;;;;;22.60;99.90;;;;;;4196528;28;19939;-59
2022/10/03 10:08:53;;;;;;;;;;;22.60;99.90;;;;;;4197837;28;20047;-59
2022/10/03 10:11:23;;;;;;;;;;;22.70;99.90;;;;;;4201943;28;19989;-59
2022/10/03 10:14:02;;;;;;;;;;;22.60;99.90;;;;;;4185403;28;20614;-59
2022/10/03 10:16:36;;;;;;;;;;;22.90;99.90;;;;;;4195839;28;20008;-59
2022/10/03 10:19:17;;;;;;;;;;;22.80;99.90;;;;;;4198368;28;19931;-59
2022/10/03 10:21:56;;;;;;;;;;;22.80;99.90;;;;;;4185092;28;19935;-59
2022/10/03 10:24:35;;;;;;;;;;;22.80;99.90;;;;;;4195885;28;19947;-59
2022/10/03 10:27:09;;;;;;;;;;;22.90;99.90;;;;;;4195618;28;19931;-59
2022/10/03 10:29:56;;;;;;;;;;;23.00;99.90;;;;;;4195103;28;19978;-59
2022/10/03 10:32:36;;;;;;;;;;;22.60;99.90;;;;;;4183070;28;20463;-59
2022/10/03 10:35:03;;;;;;;;;;;23.10;99.90;;;;;;4195846;28;19939;-59
2022/10/03 10:37:28;;;;;;;;;;;23.50;99.90;;;;;;4192704;28;20029;-59
2022/10/03 10:39:55;;;;;;;;;;;23.70;99.90;;;;;;4198675;28;20094;-59
2022/10/03 10:42:28;;;;;;;;;;;23.80;99.90;;;;;;4196119;28;19978;-60
2022/10/03 10:44:55;;;;;;;;;;;23.80;99.90;;;;;;4195544;28;19935;-59
2022/10/03 10:47:16;;;;;;;;;;;23.90;99.90;;;;;;4195118;28;20457;-60
2022/10/03 10:50:06;;;;;;;;;;;24.20;99.90;;;;;;4195761;28;19932;-59
2022/10/03 10:52:38;;;;;;;;;;;24.40;99.90;;;;;;4172328;28;19932;-60
2022/10/03 10:55:11;;;;;;;;;;;24.70;99.90;;;;;;4189203;28;19935;-59
2022/10/03 10:57:39;;;;;;;;;;;24.90;99.90;;;;;;4193648;28;20019;-60
2022/10/03 11:00:15;;;;;;;;;;;25.10;99.90;;;;;;4178038;28;19983;-60
2022/10/03 11:02:42;;;;;;;;;;;25.00;99.90;;;;;;4187217;28;19935;-60
2022/10/03 11:05:21;;;;;;;;;;;25.20;99.90;;;;;;4193834;28;19982;-59
2022/10/03 11:07:48;;;;;;;;;;;25.30;99.90;;;;;;4192505;28;19932;-59
2022/10/03 11:10:32;;;;;;;;;;;25.20;99.90;;;;;;4189705;28;20020;-59
2022/10/03 11:13:12;;;;;;;;;;;25.50;99.90;;;;;;4187165;28;19978;-59
2022/10/03 11:15:47;;;;;;;;;;;25.30;99.90;;;;;;4193115;28;19935;-59
2022/10/03 11:18:14;;;;;;;;;;;25.60;99.90;;;;;;4199153;28;19967;-59
2022/10/03 11:20:56;;;;;;;;;;;25.60;99.90;;;;;;4197402;28;20288;-60
2022/10/03 11:23:22;;;;;;;;;;;25.50;99.90;;;;;;4197413;28;19932;-60
2022/10/03 11:25:49;;;;;;;;;;;25.70;99.90;;;;;;4198356;28;20434;-59
2022/10/03 11:28:19;;;;;;;;;;;25.40;99.90;;;;;;4199145;28;20449;-59
2022/10/03 11:30:53;;;;;;;;;;;25.30;99.70;;;;;;4198906;28;19978;-59
2022/10/03 11:33:34;;;;;;;;;;;25.80;99.90;;;;;;4192550;28;19935;-59
2022/10/03 11:35:54;;;;;;;;;;;26.30;99.90;;;;;;4198996;28;19978;-59
2022/10/03 11:38:18;;;;;;;;;;;26.50;99.90;;;;;;4204434;28;19936;-59
2022/10/03 11:41:18;;;;;;;;;;;26.30;99.90;;;;;;4198908;28;20364;-59
2022/10/03 11:43:38;;;;;;;;;;;26.10;99.90;;;;;;4180111;28;20015;-58
2022/10/03 11:45:59;;;;;;;;;;;25.90;98.70;;;;;;4179892;28;19932;-59
2022/10/03 11:48:19;;;;;;;;;;;25.40;98.90;;;;;;4187908;28;20017;-59
2022/10/03 11:50:58;;;;;;;;;;;25.50;99.90;;;;;;4198015;28;20012;-59
2022/10/03 11:53:22;;;;;;;;;;;25.80;99.90;;;;;;4198369;28;19970;-59
2022/10/03 11:55:43;;;;;;;;;;;26.30;99.70;;;;;;4198273;28;20446;-58
2022/10/03 11:58:21;;;;;;;;;;;25.90;99.10;;;;;;4198267;28;20019;-58
2022/10/03 12:00:43;;;;;;;;;;;26.00;99.90;;;;;;4197231;28;19938;-59
2022/10/03 12:03:06;;;;;;;;;;;25.80;99.80;;;;;;4181946;28;19932;-59
2022/10/03 12:05:45;;;;;;;;;;;25.90;99.80;;;;;;4181937;28;19958;-59
2022/10/03 12:11:10;;;;;;;;;;;25.00;99.20;;;;;;4183759;28;19978;-59
2022/10/03 12:13:46;;;;;;;;;;;25.30;99.90;;;;;;4198294;28;19943;-59
2022/10/03 12:16:13;;;;;;;;;;;25.60;99.90;;;;;;4197737;28;19974;-59
2022/10/03 12:18:43;;;;;;;;;;;25.70;99.90;;;;;;4196183;28;20024;-59
2022/10/03 12:21:15;;;;;;;;;;;26.10;99.90;;;;;;4196772;28;19974;-59
2022/10/03 12:23:48;;;;;;;;;;;26.30;99.20;;;;;;4197066;28;20018;-58
2022/10/03 12:26:14;;;;;;;;;;;25.80;99.90;;;;;;4195473;28;19936;-59
2022/10/03 12:28:38;;;;;;;;;;;25.80;99.90;;;;;;4196701;28;20401;-60
2022/10/03 12:31:04;;;;;;;;;;;25.90;99.90;;;;;;4197168;28;20015;-60
2022/10/03 12:33:33;;;;;;;;;;;25.70;99.70;;;;;;4192830;28;19932;-60
2022/10/03 12:36:03;;;;;;;;;;;25.60;99.00;;;;;;4181983;28;19931;-60
2022/10/03 12:38:37;;;;;;;;;;;25.70;99.40;;;;;;4190212;28;20331;-60
2022/10/03 12:41:20;;;;;;;;;;;25.90;99.40;;;;;;4181343;28;19979;-60
2022/10/03 12:43:46;;;;;;;;;;;26.20;99.60;;;;;;4181443;28;20023;-60
2022/10/03 12:46:15;;;;;;;;;;;26.20;99.90;;;;;;4194108;28;19970;-60
2022/10/03 12:48:41;;;;;;;;;;;26.00;98.10;;;;;;4183558;28;20016;-60
2022/10/03 12:51:11;;;;;;;;;;;25.90;99.20;;;;;;4197308;28;19978;-60
2022/10/03 12:53:31;;;;;;;;;;;25.80;99.10;;;;;;4191025;28;19939;-60
2022/10/03 12:55:55;;;;;;;;;;;25.50;99.90;;;;;;4197466;28;19940;-60
2022/10/03 12:58:15;;;;;;;;;;;25.60;99.10;;;;;;4180830;28;19939;-60
2022/10/03 13:00:42;;;;;;;;;;;25.70;99.50;;;;;;4187701;28;19930;-60
2022/10/03 13:03:19;;;;;;;;;;;26.00;99.30;;;;;;4191447;28;19942;-60
2022/10/03 13:05:58;;;;;;;;;;;26.20;99.40;;;;;;4183932;28;19955;-60
2022/10/03 13:08:26;;;;;;;;;;;26.00;98.90;;;;;;4193079;28;20346;-60
2022/10/03 13:10:48;;;;;;;;;;;26.00;98.80;;;;;;4190866;28;20662;-60
2022/10/03 13:13:08;;;;;;;;;;;26.10;98.90;;;;;;4197121;28;19931;-60
2022/10/03 13:15:41;;;;;;;;;;;26.40;98.50;;;;;;4195844;28;19931;-60
2022/10/03 13:18:02;;;;;;;;;;;26.40;98.50;;;;;;4193897;28;19939;-60
2022/10/03 13:20:27;;;;;;;;;;;26.20;99.10;;;;;;4195899;28;20015;-60
2022/10/03 13:22:55;;;;;;;;;;;26.10;99.30;;;;;;4197226;28;19989;-60
2022/10/03 13:25:18;;;;;;;;;;;26.00;99.40;;;;;;4197305;28;19934;-60
2022/10/03 13:27:45;;;;;;;;;;;26.00;98.00;;;;;;4196806;28;19931;-60
2022/10/03 13:30:13;;;;;;;;;;;26.20;99.20;;;;;;4189745;28;19974;-60
2022/10/03 13:32:42;;;;;;;;;;;26.50;97.30;;;;;;4190496;28;19931;-60
2022/10/03 13:38:03;;;;;;;;;;;26.50;98.60;;;;;;4186044;28;19982;-60
2022/10/03 13:40:25;;;;;;;;;;;26.10;97.80;;;;;;4177163;28;20001;-60
2022/10/03 13:42:52;;;;;;;;;;;26.20;98.00;;;;;;4177199;28;20415;-60
2022/10/03 13:45:16;;;;;;;;;;;26.30;98.20;;;;;;4161174;28;19987;-60
2022/10/03 13:47:42;;;;;;;;;;;26.30;97.50;;;;;;4161411;28;19995;-60
2022/10/03 13:50:21;;;;;;;;;;;26.00;98.10;;;;;;4161190;28;19964;-60
2022/10/03 13:52:47;;;;;;;;;;;26.00;96.50;;;;;;4161665;28;19940;-60
2022/10/03 13:55:17;;;;;;;;;;;26.00;97.50;;;;;;4161332;28;19959;-60
2022/10/03 13:57:41;;;;;;;;;;;25.90;96.80;;;;;;4147559;28;19932;-60
2022/10/03 14:00:11;;;;;;;;;;;26.10;97.00;;;;;;4161366;28;20030;-60
2022/10/03 14:02:34;;;;;;;;;;;26.40;97.40;;;;;;4161770;28;19944;-60
2022/10/03 14:05:13;;;;;;;;;;;26.40;97.60;;;;;;4175197;28;19931;-60
2022/10/03 14:07:44;;;;;;;;;;;26.40;97.50;;;;;;4177408;28;19935;-60
2022/10/03 14:10:11;;;;;;;;;;;26.10;97.30;;;;;;4177396;28;19936;-60
2022/10/03 14:12:43;;;;;;;;;;;26.30;97.70;;;;;;4163474;28;19991;-59
2022/10/03 14:15:23;;;;;;;;;;;26.40;97.60;;;;;;4177704;28;20416;-60
2022/10/03 14:17:44;;;;;;;;;;;26.30;97.50;;;;;;4178697;28;19931;-60
2022/10/03 14:20:05;;;;;;;;;;;26.00;97.70;;;;;;4179837;28;19974;-60
2022/10/03 14:22:34;;;;;;;;;;;26.00;96.80;;;;;;4179538;28;20083;-60
2022/10/03 14:25:10;;;;;;;;;;;25.90;97.20;;;;;;4179314;28;20457;-60
2022/10/03 14:27:31;;;;;;;;;;;25.60;97.70;;;;;;4179240;28;19995;-60
2022/10/03 14:30:01;;;;;;;;;;;25.60;97.90;;;;;;4179425;28;19931;-60
2022/10/03 14:32:40;;;;;;;;;;;25.60;97.30;;;;;;4179613;28;20062;-60
2022/10/03 14:35:18;;;;;;;;;;;25.50;98.00;;;;;;4179427;28;19932;-60
2022/10/03 14:37:41;;;;;;;;;;;25.60;97.30;;;;;;4179365;28;20426;-60
2022/10/03 14:40:19;;;;;;;;;;;25.70;97.30;;;;;;4187485;28;19934;-60
2022/10/03 14:42:48;;;;;;;;;;;25.90;98.10;;;;;;4196435;28;19932;-60
2022/10/03 14:45:14;;;;;;;;;;;25.60;97.10;;;;;;4195591;28;19935;-60
2022/10/03 14:47:36;;;;;;;;;;;25.30;96.80;;;;;;4194993;28;20334;-60
2022/10/03 14:49:58;;;;;;;;;;;25.30;97.20;;;;;;4195989;28;19955;-60
2022/10/03 14:52:38;;;;;;;;;;;25.30;96.70;;;;;;4201371;28;19935;-60